Airfield :
LOGIN :

Register | Disclaimer

   EN    FR    IT 

 










Legend :    VFR   Marginal VFR   IFR   Intensive IFR   Very Intensive IFR
Visi :
Ceiling :
>= 8 km
>= 3000ft
5 to 8 km
1000 to 3000 ft
1500m to 5 km
500 to 1000 ft
800 to 1500m
200 to 500 ft
< 800m
< 200 ft
Symbols :   Thunderstorms  Fog  Heavy snow  Heavy precipitations  Wind > 20 kt
SIGMETs :     Misc.  Thunderstorms  Icing  Turbulence  Mountain Waves  Volcanic Ashes







- Airport Elevation : 436 ft
- IATA code : BTS


LZIB - Bratislava

CURRENT METAR :
  • 251130Z 27012KT 240V310 CAVOK 12/02 Q1013 TEMPO SHRA

EXPIRED METARs :
  • 251100Z 30014KT 270V330 9999 FEW045 13/01 Q1013 NOSIG
  • 251030Z 28013KT 9999 SCT045 SCT071 BKN098 12/01 Q1014 NOSIG
  • 251000Z 30009KT 270V340 9999 FEW043 BKN090 12/02 Q1014 NOSIG
  • 250947Z 29012KT 270V330 CAVOK 13/02 Q1014
  • 250930Z 31014KT CAVOK 11/01 Q1014 NOSIG
  • 250900Z 31015KT 9999 FEW037 SCT058 BKN100 11/03 Q1014 NOSIG

TAF TAF LZIB
Valid from the 25 at 12:00 until the 26 at 12:00 UTC


251100Z 2512/2612 32008KT CAVOK
TEMPO 2512/2516 29012KT 9999 -SHRA BKN020
TEMPO 2512/2521 32015G28KT
BECMG 2607/2609 9999 BKN033
No reported NOTAMs for that airfield.



MET'MAP, your aeronautical weather chart ! - Copyright ORBIFLY December 2007 - Disclaimer

ORBIFLY MET'MAP TEAM :

Programming & Development : Alexandra Zaïnal
Concept & Development : Baudouin d'Aumeries
Co-Development & Prog : Marc-Olivier Méhu
Technical & hardware support : Manuel Goepfert

Contact : metmap@orbifly.com




SOURCES & CREDITS :

   NOAA